Time;durP1;ratioP1;P1;durP2;ratioP2;P2;SDS_P1;SDS_P2;PMS_P1;PMS_P2;Temp;Humidity;BMP_temperature;BMP_pressure;BME280_temperature;BME280_humidity;BME280_pressure;Samples;Min_cycle;Max_cycle;Signal;HPM_P1;HPM_P2
2021/12/20 00:02:17;;;;;;;1999.90;999.90;;;;;;;-1.64;61.39;101944.75;5025324;27;98591;-71
2021/12/20 00:04:46;;;;;;;1999.90;999.90;;;;;;;-1.69;61.63;101948.66;5025467;27;98988;-70
2021/12/20 00:07:14;;;;;;;1999.90;999.90;;;;;;;-1.66;61.45;101942.00;5024127;27;97239;-71
2021/12/20 00:09:42;;;;;;;1999.90;999.90;;;;;;;-1.67;61.23;101941.88;5028133;27;97961;-71
2021/12/20 00:12:10;;;;;;;1999.90;999.90;;;;;;;-1.71;61.61;101938.09;5031881;27;99177;-71
2021/12/20 00:14:39;;;;;;;1999.90;999.90;;;;;;;-1.74;61.75;101945.63;5031642;27;97453;-71
2021/12/20 00:17:06;;;;;;;1999.90;999.90;;;;;;;-1.82;61.41;101941.44;5032204;27;97119;-71
2021/12/20 00:19:34;;;;;;;1999.90;999.90;;;;;;;-1.87;61.26;101950.56;5033102;27;98867;-70
2021/12/20 00:22:02;;;;;;;1999.90;999.90;;;;;;;-1.87;61.15;101947.97;5031080;27;99611;-70
2021/12/20 00:24:30;;;;;;;1999.90;999.90;;;;;;;-1.85;61.91;101955.13;5030061;27;96867;-70
2021/12/20 00:26:58;;;;;;;1999.90;999.90;;;;;;;-1.82;61.94;101939.72;5032556;27;98396;-71
2021/12/20 00:29:25;;;;;;;1999.90;999.90;;;;;;;-1.81;61.21;101935.44;5012884;27;99146;-70
2021/12/20 00:31:54;;;;;;;1999.90;999.90;;;;;;;-1.86;61.14;101941.94;5024448;27;97977;-70
2021/12/20 00:34:22;;;;;;;1999.90;999.90;;;;;;;-1.88;60.56;101953.94;5009639;27;98845;-70
2021/12/20 00:36:57;;;;;;;1999.90;999.90;;;;;;;-1.92;61.27;101957.97;5025813;27;98752;-70
2021/12/20 00:42:10;;;;;;;1999.90;999.90;;;;;;;-2.02;61.26;101950.13;5027466;27;97968;-70
2021/12/20 00:44:37;;;;;;;1999.90;999.90;;;;;;;-2.09;60.40;101963.34;5030236;27;98373;-70
2021/12/20 00:47:06;;;;;;;1999.90;999.90;;;;;;;-2.18;61.08;101966.81;5027456;27;100444;-69
2021/12/20 00:49:34;;;;;;;1999.90;999.90;;;;;;;-2.13;61.38;101969.09;5029121;27;97545;-70
2021/12/20 00:52:02;;;;;;;1999.90;999.90;;;;;;;-2.15;61.34;101965.44;5026062;27;98775;-70
2021/12/20 00:54:30;;;;;;;1999.90;999.90;;;;;;;-2.15;61.61;101967.09;5029069;27;96842;-70
2021/12/20 00:56:57;;;;;;;1999.90;999.90;;;;;;;-2.14;61.42;101963.72;5022905;27;98293;-73
2021/12/20 00:59:25;;;;;;;1999.90;999.90;;;;;;;-2.17;61.41;101960.84;5026958;27;98992;-71
2021/12/20 01:01:53;;;;;;;1999.90;999.90;;;;;;;-2.20;60.54;101964.03;5027251;27;98187;-71
2021/12/20 01:04:22;;;;;;;1999.90;999.90;;;;;;;-2.26;60.61;101962.56;5026299;27;96836;-71
2021/12/20 01:06:50;;;;;;;1999.90;999.90;;;;;;;-2.28;61.42;101970.25;5030204;27;97003;-71
2021/12/20 01:09:18;;;;;;;1999.90;999.90;;;;;;;-2.31;61.33;101983.00;5027901;27;97053;-71
2021/12/20 01:11:51;;;;;;;1999.90;999.90;;;;;;;-2.26;60.89;101986.97;5026404;27;98840;-70
2021/12/20 01:14:23;;;;;;;1999.90;999.90;;;;;;;-2.25;61.22;101991.38;5030400;27;97237;-70
2021/12/20 01:16:51;;;;;;;1999.90;999.90;;;;;;;-2.28;60.20;101995.41;5029017;27;98630;-71
2021/12/20 01:19:19;;;;;;;1999.90;999.90;;;;;;;-2.33;60.49;101991.47;5011599;27;98804;-70
2021/12/20 01:21:48;;;;;;;1999.90;999.90;;;;;;;-2.34;61.13;101992.22;5030036;27;102483;-71
2021/12/20 01:24:16;;;;;;;1999.90;999.90;;;;;;;-2.40;60.94;101991.69;5029206;27;97119;-70
2021/12/20 01:26:44;;;;;;;1999.90;999.90;;;;;;;-2.44;60.91;101997.38;5030614;27;96713;-71
2021/12/20 01:29:12;;;;;;;1999.90;999.90;;;;;;;-2.41;61.77;102002.88;5028679;27;100633;-70
2021/12/20 01:31:39;;;;;;;1999.90;999.90;;;;;;;-2.39;61.59;102002.25;5030805;27;101635;-70
2021/12/20 01:34:07;;;;;;;1999.90;999.90;;;;;;;-2.35;60.77;102004.38;5026134;27;98087;-70
2021/12/20 01:36:35;;;;;;;1999.90;999.90;;;;;;;-2.34;61.79;102000.06;5027247;27;97346;-70
2021/12/20 01:39:04;;;;;;;1999.90;999.90;;;;;;;-2.33;60.69;101992.41;5030085;27;100641;-71
2021/12/20 01:41:32;;;;;;;1999.90;999.90;;;;;;;-2.37;60.45;101990.28;5026911;27;98790;-70
2021/12/20 01:44:00;;;;;;;1999.90;999.90;;;;;;;-2.41;61.29;101995.97;5024690;27;98843;-70
2021/12/20 01:46:28;;;;;;;1999.90;999.90;;;;;;;-2.43;61.28;101994.91;5027268;27;97309;-70
2021/12/20 01:48:55;;;;;;;1999.90;999.90;;;;;;;-2.46;61.04;101994.66;5035954;27;97830;-71
2021/12/20 01:51:32;;;;;;;1999.90;999.90;;;;;;;-2.46;61.10;101994.66;5032835;27;99855;-70
2021/12/20 01:54:01;;;;;;;1999.90;999.90;;;;;;;-2.50;60.20;101995.13;5033842;27;98138;-70
2021/12/20 01:56:33;;;;;;;1999.90;999.90;;;;;;;-2.14;59.98;101989.78;5029659;27;97653;-70
2021/12/20 01:59:03;;;;;;;1999.90;999.90;;;;;;;-2.40;59.71;102005.63;5034398;27;97793;-72
2021/12/20 02:01:31;;;;;;;1999.90;999.90;;;;;;;-2.51;60.00;102001.09;5030197;27;98904;-71
2021/12/20 02:04:01;;;;;;;1999.90;999.90;;;;;;;-2.58;60.24;101993.50;5035868;27;97440;-70
2021/12/20 02:06:34;;;;;;;1999.90;999.90;;;;;;;-2.66;60.39;101989.28;5035003;27;97905;-71
2021/12/20 02:09:05;;;;;;;1999.90;999.90;;;;;;;-2.72;60.08;101995.59;5012172;27;99651;-69
2021/12/20 02:11:34;;;;;;;1999.90;999.90;;;;;;;-2.74;60.05;102000.66;5012858;27;99206;-70
2021/12/20 02:14:03;;;;;;;1999.90;999.90;;;;;;;-2.80;60.21;102000.09;5029571;27;97435;-70
2021/12/20 02:16:31;;;;;;;1999.90;999.90;;;;;;;-2.79;60.30;102001.94;5024508;27;97854;-70
2021/12/20 02:19:02;;;;;;;1999.90;999.90;;;;;;;-2.90;60.20;101998.34;5025621;27;99565;-70
2021/12/20 02:21:32;;;;;;;1999.90;999.90;;;;;;;-2.90;60.14;101998.34;5025899;27;97613;-70
2021/12/20 02:24:00;;;;;;;1999.90;999.90;;;;;;;-2.92;60.67;101991.13;5022531;27;97552;-70
2021/12/20 02:26:28;;;;;;;1999.90;999.90;;;;;;;-2.98;60.04;101995.75;5027556;27;97285;-70
2021/12/20 02:29:01;;;;;;;1999.90;999.90;;;;;;;-3.00;60.33;101984.28;5025643;27;97703;-70
2021/12/20 02:37:17;;;;;;;1999.90;999.90;;;;;;;-3.03;60.53;101987.53;5027580;27;97778;-69
2021/12/20 02:39:46;;;;;;;1999.90;999.90;;;;;;;-3.08;60.58;101990.47;5026781;27;98041;-70
2021/12/20 02:42:18;;;;;;;1999.90;999.90;;;;;;;-3.10;60.14;101994.63;5024017;27;99376;-70
2021/12/20 02:44:48;;;;;;;1999.90;999.90;;;;;;;-3.08;60.83;101994.00;5031458;27;97257;-70
2021/12/20 02:47:28;;;;;;;1999.90;999.90;;;;;;;-3.21;59.88;101993.63;5032601;27;98757;-70
2021/12/20 02:49:57;;;;;;;1999.90;999.90;;;;;;;-3.18;60.28;101992.97;5032490;27;100475;-70
2021/12/20 02:52:26;;;;;;;1999.90;999.90;;;;;;;-3.28;60.31;101979.88;5033942;27;98793;-69
2021/12/20 02:54:54;;;;;;;1999.90;999.90;;;;;;;-3.30;60.72;101986.59;5035204;27;97977;-70
2021/12/20 02:57:22;;;;;;;1999.90;999.90;;;;;;;-3.28;60.78;101979.88;5035454;27;96898;-70
2021/12/20 02:59:50;;;;;;;1999.90;999.90;;;;;;;-3.36;60.42;101992.16;5034695;27;99784;-70
2021/12/20 03:02:19;;;;;;;1999.90;999.90;;;;;;;-3.36;60.67;101994.75;5029684;27;98918;-71
2021/12/20 03:04:47;;;;;;;1999.90;999.90;;;;;;;-3.35;61.07;101983.56;5035436;27;98586;-72
2021/12/20 03:07:21;;;;;;;1999.90;999.90;;;;;;;-3.37;60.77;101997.22;5035514;27;97957;-70
2021/12/20 03:09:55;;;;;;;1999.90;999.90;;;;;;;-3.37;60.69;101997.22;5035725;27;97781;-70
2021/12/20 03:12:27;;;;;;;1999.90;999.90;;;;;;;-3.36;60.81;101996.41;5037705;27;98322;-71
2021/12/20 03:15:00;;;;;;;1999.90;999.90;;;;;;;-3.39;60.34;102001.34;5019838;27;97489;-71
2021/12/20 03:17:28;;;;;;;1999.90;999.90;;;;;;;-3.36;60.68;101988.63;5035947;27;97876;-71
2021/12/20 03:19:57;;;;;;;1999.90;999.90;;;;;;;-3.39;60.57;101996.16;5030428;27;97035;-70
2021/12/20 03:22:24;;;;;;;1999.90;999.90;;;;;;;-3.38;60.42;102010.97;5008100;27;99602;-71
2021/12/20 03:24:53;;;;;;;1999.90;999.90;;;;;;;-3.35;60.97;102016.50;5028887;27;97276;-72
2021/12/20 03:27:21;;;;;;;1999.90;999.90;;;;;;;-3.34;60.58;102006.22;5027686;27;98619;-71
2021/12/20 03:29:49;;;;;;;1999.90;999.90;;;;;;;-3.30;61.15;101999.63;5031101;27;97645;-71
2021/12/20 03:32:17;;;;;;;1999.90;999.90;;;;;;;-3.31;60.66;102009.09;5009989;27;100175;-70
2021/12/20 03:34:45;;;;;;;1999.90;999.90;;;;;;;-3.34;60.46;102005.28;5028019;27;98009;-71
2021/12/20 03:37:12;;;;;;;1999.90;999.90;;;;;;;-3.31;60.31;102006.50;5029157;27;98339;-71
2021/12/20 03:39:40;;;;;;;1999.90;999.90;;;;;;;-3.30;60.34;102004.81;5028092;27;97801;-71
2021/12/20 03:42:09;;;;;;;1999.90;999.90;;;;;;;-3.29;60.33;102011.84;5026717;27;97643;-71
2021/12/20 03:44:43;;;;;;;1999.90;999.90;;;;;;;-3.30;60.59;102012.63;5030521;27;96986;-71
2021/12/20 03:47:11;;;;;;;1999.90;999.90;;;;;;;-3.26;60.68;102019.97;5027190;27;98211;-70
2021/12/20 03:49:40;;;;;;;1999.90;999.90;;;;;;;-3.28;60.14;102018.91;5032270;27;97896;-70
2021/12/20 03:52:08;;;;;;;1999.90;999.90;;;;;;;-3.27;60.17;102021.66;5030051;27;97889;-69
2021/12/20 03:54:36;;;;;;;1999.90;999.90;;;;;;;-3.25;60.07;102011.38;5028557;27;97296;-69
2021/12/20 03:57:05;;;;;;;1999.90;999.90;;;;;;;-3.25;60.18;102020.13;5028721;27;96826;-71
2021/12/20 03:59:34;;;;;;;1999.90;999.90;;;;;;;-3.26;60.46;102019.97;5044729;27;100283;-69
2021/12/20 04:02:02;;;;;;;1999.90;999.90;;;;;;;-3.27;60.71;102018.13;5027503;27;100303;-68
2021/12/20 04:04:30;;;;;;;1999.90;999.90;;;;;;;-3.25;60.62;102021.78;5023868;27;97850;-70
2021/12/20 04:06:58;;;;;;;1999.90;999.90;;;;;;;-3.28;59.89;102011.09;5027259;27;97800;-70
2021/12/20 04:09:26;;;;;;;1999.90;999.90;;;;;;;-3.32;60.49;102015.09;5007592;27;98871;-70
2021/12/20 04:11:53;;;;;;;1999.90;999.90;;;;;;;-3.35;59.89;102019.09;5023932;27;98932;-70
2021/12/20 04:14:22;;;;;;;1999.90;999.90;;;;;;;-3.35;60.02;102029.50;5024524;27;96984;-69
2021/12/20 04:16:51;;;;;;;1999.90;999.90;;;;;;;-3.36;60.25;102019.84;5028955;27;97688;-69
2021/12/20 04:19:18;;;;;;;1999.90;999.90;;;;;;;-3.33;60.50;102031.47;5023242;27;99508;-69
2021/12/20 04:21:46;;;;;;;1999.90;999.90;;;;;;;-3.34;60.35;102031.31;5029802;27;99533;-70
2021/12/20 04:24:14;;;;;;;1999.90;999.90;;;;;;;-3.34;60.11;102037.44;5022678;27;97814;-69
2021/12/20 04:26:42;;;;;;;1999.90;999.90;;;;;;;-3.32;60.27;102024.56;5022329;27;96939;-70
2021/12/20 04:29:10;;;;;;;1999.90;999.90;;;;;;;-2.98;59.69;102019.19;5026703;27;99055;-69
2021/12/20 04:31:38;;;;;;;1999.90;999.90;;;;;;;-3.11;60.19;102031.84;5027172;27;101319;-70
2021/12/20 04:34:07;;;;;;;1999.90;999.90;;;;;;;-3.14;59.58;102031.53;5025060;27;96971;-70
2021/12/20 04:36:34;;;;;;;1999.90;999.90;;;;;;;-2.80;58.63;102035.66;5030240;27;96839;-70
2021/12/20 04:39:04;;;;;;;1999.90;999.90;;;;;;;-2.53;57.39;102033.94;5024609;27;99478;-70
2021/12/20 04:41:33;;;;;;;1999.90;999.90;;;;;;;-2.86;58.26;102036.00;5026074;27;97713;-70
2021/12/20 04:44:00;;;;;;;1999.90;999.90;;;;;;;-2.98;58.20;102034.81;5008224;27;97012;-70
2021/12/20 04:46:28;;;;;;;1999.90;999.90;;;;;;;-3.02;59.22;102038.81;5010278;27;97310;-69
2021/12/20 04:48:56;;;;;;;1999.90;999.90;;;;;;;-3.08;59.32;102022.66;5024566;27;99293;-70
2021/12/20 04:51:25;;;;;;;1999.90;999.90;;;;;;;-3.12;59.37;102024.78;5032181;27;97702;-70
2021/12/20 04:53:53;;;;;;;1999.90;999.90;;;;;;;-3.14;59.06;102034.16;5028037;27;98068;-69
2021/12/20 04:56:21;;;;;;;1999.90;999.90;;;;;;;-3.16;59.51;102030.47;5027796;27;101775;-70
2021/12/20 04:58:49;;;;;;;1999.90;999.90;;;;;;;-2.82;58.66;102043.34;5023347;27;99464;-70
2021/12/20 05:01:17;;;;;;;1999.90;999.90;;;;;;;-2.58;57.64;102045.59;5032045;27;99025;-70
2021/12/20 05:03:44;;;;;;;1999.90;999.90;;;;;;;-2.84;57.54;102044.88;5034372;27;97265;-69
2021/12/20 05:06:12;;;;;;;1999.90;999.90;;;;;;;-2.94;58.44;102043.09;5034252;27;97004;-71
2021/12/20 05:08:48;;;;;;;1999.90;999.90;;;;;;;-2.98;58.56;102046.16;5035822;27;97034;-70
2021/12/20 05:11:16;;;;;;;1999.90;999.90;;;;;;;-3.02;58.34;102037.94;5013353;27;98859;-70
2021/12/20 05:13:44;;;;;;;1999.90;999.90;;;;;;;-3.09;58.75;102048.50;5030755;27;97395;-70
2021/12/20 05:16:12;;;;;;;1999.90;999.90;;;;;;;-3.14;58.51;102053.28;5015028;27;97107;-70
2021/12/20 05:18:40;;;;;;;1999.90;999.90;;;;;;;-3.15;59.36;102060.97;5045244;27;97633;-71
2021/12/20 05:21:07;;;;;;;1999.90;999.90;;;;;;;-3.17;59.02;102066.03;5017238;27;99640;-71
2021/12/20 05:23:35;;;;;;;1999.90;999.90;;;;;;;-3.20;59.19;102060.50;5032337;27;99477;-70
2021/12/20 05:26:05;;;;;;;1999.90;999.90;;;;;;;-3.20;58.82;102063.09;5006050;27;96913;-70
2021/12/20 05:28:33;;;;;;;1999.90;999.90;;;;;;;-3.21;59.42;102061.28;5027341;27;99471;-70
2021/12/20 05:31:00;;;;;;;1999.90;999.90;;;;;;;-3.19;59.22;102074.44;5025782;27;97634;-70
2021/12/20 05:33:29;;;;;;;1999.90;999.90;;;;;;;-3.22;59.06;102074.16;5024903;27;98362;-71
2021/12/20 05:35:57;;;;;;;1999.90;999.90;;;;;;;-3.22;58.63;102074.16;5027228;27;98354;-70
2021/12/20 05:38:44;;;;;;;1999.90;999.90;;;;;;;-3.25;59.49;102081.66;5025387;27;98726;-70
2021/12/20 05:41:13;;;;;;;1999.90;999.90;;;;;;;-3.24;59.41;102075.69;5023971;27;99042;-71
2021/12/20 05:43:41;;;;;;;1999.90;999.90;;;;;;;-3.26;59.16;102079.84;5018573;27;97043;-70
2021/12/20 05:46:12;;;;;;;1999.90;999.90;;;;;;;-3.29;59.10;102079.50;5024917;27;98927;-70
2021/12/20 05:48:39;;;;;;;1999.90;999.90;;;;;;;-3.32;59.09;102081.84;5023151;27;101052;-71
2021/12/20 05:51:08;;;;;;;1999.90;999.90;;;;;;;-3.34;59.57;102086.91;5023312;27;97563;-71
2021/12/20 05:53:36;;;;;;;1999.90;999.90;;;;;;;-3.36;59.71;102093.63;5026782;27;97571;-71
2021/12/20 05:56:04;;;;;;;1999.90;999.90;;;;;;;-3.35;59.83;102102.38;5025923;27;96990;-72
2021/12/20 05:58:33;;;;;;;1999.90;999.90;;;;;;;-3.33;59.96;102100.84;5002965;27;99882;-73
2021/12/20 06:01:01;;;;;;;1999.90;999.90;;;;;;;-3.29;59.90;102108.13;5026966;27;98968;-73
2021/12/20 06:03:29;;;;;;;1999.90;999.90;;;;;;;-3.30;59.21;102107.25;5031385;27;98413;-70
2021/12/20 06:05:58;;;;;;;1999.90;999.90;;;;;;;-3.28;59.51;102105.72;5030818;27;97224;-74
2021/12/20 06:08:25;;;;;;;1999.90;999.90;;;;;;;-3.33;59.09;102101.72;5013797;27;99307;-73
2021/12/20 06:10:53;;;;;;;1999.90;999.90;;;;;;;-3.32;59.78;102102.66;5028175;27;98414;-73
2021/12/20 06:13:21;;;;;;;1999.90;999.90;;;;;;;-3.33;59.74;102104.31;5036993;27;97687;-73
2021/12/20 06:15:50;;;;;;;1999.90;999.90;;;;;;;-3.34;59.70;102105.09;5039381;27;96772;-73
2021/12/20 06:18:18;;;;;;;1999.90;999.90;;;;;;;-3.34;59.25;102105.09;5034892;27;97651;-73
2021/12/20 06:20:45;;;;;;;1999.90;999.90;;;;;;;-3.34;58.95;102115.53;5036888;27;99234;-73
2021/12/20 06:23:13;;;;;;;1999.90;999.90;;;;;;;-3.37;59.58;102109.09;5017018;27;97207;-72
2021/12/20 06:25:41;;;;;;;1999.90;999.90;;;;;;;-3.37;59.49;102119.50;5037217;27;97831;-74
2021/12/20 06:28:09;;;;;;;1999.90;999.90;;;;;;;-3.37;59.24;102120.44;5035699;27;98329;-74
2021/12/20 06:30:37;;;;;;;1999.90;999.90;;;;;;;-3.38;59.35;102122.88;5037449;27;96789;-73
2021/12/20 06:33:06;;;;;;;1999.90;999.90;;;;;;;-3.42;59.12;102121.66;5040680;27;96767;-74
2021/12/20 06:35:35;;;;;;;1999.90;999.90;;;;;;;-3.43;58.80;102119.81;5037090;27;98041;-71
2021/12/20 06:38:04;;;;;;;1999.90;999.90;;;;;;;-3.46;59.34;102122.13;5038339;27;99715;-73
2021/12/20 06:40:33;;;;;;;1999.90;999.90;;;;;;;-3.51;59.42;102125.94;5020454;27;100732;-74
2021/12/20 06:43:02;;;;;;;1999.90;999.90;;;;;;;-3.53;59.16;102118.78;5038677;27;97537;-73
2021/12/20 06:45:30;;;;;;;1999.90;999.90;;;;;;;-3.53;59.30;102110.97;5037938;27;97295;-73
2021/12/20 06:47:58;;;;;;;1999.90;999.90;;;;;;;-3.55;58.99;102112.50;5039761;27;98867;-74
2021/12/20 06:50:27;;;;;;;1999.90;999.90;;;;;;;-3.55;59.53;102120.31;5039553;27;97548;-72
2021/12/20 06:52:55;;;;;;;1999.90;999.90;;;;;;;-3.55;59.48;102123.84;5039807;27;97172;-74
2021/12/20 06:55:23;;;;;;;1999.90;999.90;;;;;;;-3.57;59.37;102127.03;5040115;27;96774;-73
2021/12/20 06:57:51;;;;;;;1999.90;999.90;;;;;;;-3.62;59.20;102121.38;5021562;27;99739;-74
2021/12/20 07:00:20;;;;;;;1999.90;999.90;;;;;;;-3.66;59.39;102118.34;5039869;27;97569;-74
2021/12/20 07:02:48;;;;;;;1999.90;999.90;;;;;;;-3.67;59.16;102121.69;5039760;27;97507;-74
2021/12/20 07:05:21;;;;;;;1999.90;999.90;;;;;;;-3.68;59.74;102119.88;5033893;27;97143;-73
2021/12/20 07:07:50;;;;;;;1999.90;999.90;;;;;;;-3.68;59.40;102122.47;5038549;27;99359;-72
2021/12/20 07:10:18;;;;;;;1999.90;999.90;;;;;;;-3.66;59.77;102120.94;5038495;27;97968;-74
2021/12/20 07:12:46;;;;;;;1999.90;999.90;;;;;;;-3.64;59.78;102119.41;5038501;27;97609;-74
2021/12/20 07:15:14;;;;;;;1999.90;999.90;;;;;;;-3.66;59.10;102118.34;5040176;27;97374;-74
2021/12/20 07:17:42;;;;;;;1999.90;999.90;;;;;;;-3.67;59.48;102129.50;5035595;27;100255;-73
2021/12/20 07:20:11;;;;;;;1999.90;999.90;;;;;;;-3.67;59.36;102132.09;5037146;27;98979;-73
2021/12/20 07:22:39;;;;;;;1999.90;999.90;;;;;;;-3.69;59.06;102133.63;5031328;27;97942;-73
2021/12/20 07:25:09;;;;;;;1999.90;999.90;;;;;;;-3.72;59.21;102130.72;5038805;27;97912;-73
2021/12/20 07:27:38;;;;;;;1999.90;999.90;;;;;;;-3.71;59.96;102136.06;5038074;27;97249;-74
2021/12/20 07:30:07;;;;;;;1999.90;999.90;;;;;;;-3.73;59.39;102131.50;5038617;27;97397;-73
2021/12/20 07:32:35;;;;;;;1999.90;999.90;;;;;;;-3.41;58.42;102138.19;5034341;27;97523;-73
2021/12/20 07:35:03;;;;;;;1999.90;999.90;;;;;;;-3.60;58.75;102131.97;5036338;27;96887;-73
2021/12/20 07:37:31;;;;;;;1999.90;999.90;;;;;;;-3.67;58.85;102138.22;5020357;27;100543;-74
2021/12/20 07:39:58;;;;;;;1999.90;999.90;;;;;;;-3.69;59.04;102133.63;5038294;27;97214;-72
2021/12/20 07:42:27;;;;;;;1999.90;999.90;;;;;;;-3.69;59.41;102141.41;5038472;27;97075;-73
2021/12/20 07:44:58;;;;;;;1999.90;999.90;;;;;;;-3.39;57.97;102141.84;5021705;27;97240;-72
2021/12/20 07:47:45;;;;;;;1999.90;999.90;;;;;;;-3.14;57.45;102133.06;5037272;27;99017;-72
2021/12/20 07:50:13;;;;;;;1999.90;999.90;;;;;;;-2.97;56.04;102141.75;5035725;27;99471;-72
2021/12/20 07:52:41;;;;;;;1999.90;999.90;;;;;;;-3.30;57.24;102137.56;5029884;27;97887;-71
2021/12/20 07:55:10;;;;;;;1999.90;999.90;;;;;;;-3.02;56.76;102135.16;5026196;27;98578;-73
2021/12/20 07:57:39;;;;;;;1999.90;999.90;;;;;;;-2.85;55.80;102139.38;5011175;27;98871;-72
2021/12/20 08:00:09;;;;;;;1999.90;999.90;;;;;;;-3.19;56.95;102157.75;5030591;27;100557;-72
2021/12/20 08:02:40;;;;;;;1999.90;999.90;;;;;;;-3.34;57.58;102148.41;5031665;27;96957;-72
2021/12/20 08:05:09;;;;;;;1999.90;999.90;;;;;;;-3.05;56.03;102153.09;5030663;27;97071;-73
2021/12/20 08:07:37;;;;;;;1999.90;999.90;;;;;;;-2.85;55.33;102155.00;5026548;27;98056;-73
2021/12/20 08:10:05;;;;;;;1999.90;999.90;;;;;;;-2.72;55.05;102160.63;5024049;27;99216;-72
2021/12/20 08:12:33;;;;;;;1999.90;999.90;;;;;;;-2.65;54.75;102154.31;5030205;27;97654;-72
2021/12/20 08:15:02;;;;;;;1999.90;999.90;;;;;;;-3.07;55.88;102164.13;5030715;27;98568;-72
2021/12/20 08:17:31;;;;;;;1999.90;999.90;;;;;;;-3.22;56.25;102170.47;5035591;27;98916;-74
2021/12/20 08:19:59;;;;;;;1999.90;999.90;;;;;;;-3.32;56.54;102171.25;5012468;27;99600;-72
2021/12/20 08:22:27;;;;;;;1999.90;999.90;;;;;;;-3.43;56.65;102161.47;5035803;27;97370;-73
2021/12/20 08:24:55;;;;;;;1999.90;999.90;;;;;;;-3.51;57.07;102164.97;5034742;27;97800;-72
2021/12/20 08:27:22;;;;;;;1999.90;999.90;;;;;;;-3.53;57.43;102170.81;5035795;27;97802;-72
2021/12/20 08:29:50;;;;;;;1999.90;999.90;;;;;;;-3.58;57.81;102162.53;5037001;27;99229;-72
2021/12/20 08:32:19;;;;;;;1999.90;999.90;;;;;;;-3.62;57.41;102173.41;5037775;27;97015;-72
2021/12/20 08:34:52;;;;;;;1999.90;999.90;;;;;;;-3.32;56.87;102176.44;5034912;27;98776;-73
2021/12/20 08:37:19;;;;;;;1999.90;999.90;;;;;;;-3.49;57.20;102175.53;5036772;27;98859;-72
2021/12/20 08:39:47;;;;;;;1999.90;999.90;;;;;;;-3.55;57.51;102183.69;5035133;27;100367;-72
2021/12/20 08:42:15;;;;;;;1999.90;999.90;;;;;;;-3.59;57.29;102181.53;5033108;27;97184;-71
2021/12/20 08:44:42;;;;;;;1999.90;999.90;;;;;;;-3.62;57.67;102182.91;5038482;27;96919;-71
2021/12/20 08:47:10;;;;;;;1999.90;999.90;;;;;;;-3.64;58.00;102181.84;5035600;27;99548;-72
2021/12/20 08:49:39;;;;;;;1999.90;999.90;;;;;;;-3.68;57.90;102184.88;5036597;27;99623;-72
2021/12/20 08:52:08;;;;;;;1999.90;999.90;;;;;;;-3.68;57.57;102184.88;5037205;27;97978;-72
2021/12/20 08:54:36;;;;;;;1999.90;999.90;;;;;;;-3.69;57.82;102190.84;5038358;27;96974;-72
2021/12/20 08:57:05;;;;;;;1999.90;999.90;;;;;;;-3.72;57.81;102195.75;5036189;27;97598;-72
2021/12/20 08:59:32;;;;;;;1999.90;999.90;;;;;;;-3.75;57.92;102195.44;5018342;27;99168;-72
2021/12/20 09:02:00;;;;;;;1999.90;999.90;;;;;;;-3.76;58.16;102193.59;5038825;27;97248;-72
2021/12/20 09:04:28;;;;;;;1999.90;999.90;;;;;;;-3.77;58.39;102199.56;5036829;27;97236;-71
2021/12/20 09:06:57;;;;;;;1999.90;999.90;;;;;;;-3.78;58.25;102198.66;5036456;27;97897;-72
2021/12/20 09:09:29;;;;;;;1999.90;999.90;;;;;;;-3.76;58.03;102197.13;5036648;27;99597;-72
2021/12/20 09:11:57;;;;;;;1999.90;999.90;;;;;;;-3.75;58.08;102211.97;5036900;27;96837;-72
2021/12/20 09:14:25;;;;;;;1999.90;999.90;;;;;;;-3.70;58.36;102209.81;5036950;27;99013;-71
2021/12/20 09:16:54;;;;;;;1999.90;999.90;;;;;;;-3.66;58.48;102218.09;5036140;27;98930;-72
2021/12/20 09:19:21;;;;;;;1999.90;999.90;;;;;;;-3.63;58.02;102222.69;5037262;27;97641;-72
2021/12/20 09:21:49;;;;;;;1999.90;999.90;;;;;;;-3.60;58.32;102217.81;5038765;27;97562;-72
2021/12/20 09:24:18;;;;;;;1999.90;999.90;;;;;;;-3.59;58.33;102230.03;5035093;27;97943;-72
2021/12/20 09:26:46;;;;;;;1999.90;999.90;;;;;;;-3.56;57.98;102218.25;5035186;27;99672;-72
2021/12/20 09:29:14;;;;;;;1999.90;999.90;;;;;;;-3.49;58.05;102223.28;5038861;27;97569;-72
2021/12/20 09:31:42;;;;;;;1999.90;999.90;;;;;;;-3.43;57.73;102218.69;5038010;27;98636;-72
2021/12/20 09:34:10;;;;;;;1999.90;999.90;;;;;;;-3.37;58.38;102218.41;5035585;27;97569;-71
2021/12/20 09:36:38;;;;;;;1999.90;999.90;;;;;;;-3.32;57.48;102225.91;5038408;27;97981;-72
2021/12/20 09:39:10;;;;;;;1999.90;999.90;;;;;;;-3.28;57.76;102227.13;5035882;27;97554;-72
2021/12/20 09:44:26;;;;;;;1999.90;999.90;;;;;;;-3.19;58.50;102212.41;5035882;27;97022;-74
2021/12/20 09:47:00;;;;;;;1999.90;999.90;;;;;;;-3.11;57.93;102214.97;5048943;27;100496;-72
2021/12/20 09:49:30;;;;;;;1999.90;999.90;;;;;;;-3.02;57.81;102220.19;5051266;27;97772;-74
2021/12/20 09:51:58;;;;;;;1999.90;999.90;;;;;;;-2.64;57.20;102211.81;5045764;27;96967;-72
2021/12/20 09:54:27;;;;;;;1999.90;999.90;;;;;;;-2.68;56.93;102219.16;5046684;27;96893;-73
2021/12/20 09:56:59;;;;;;;1999.90;999.90;;;;;;;-2.65;57.50;102227.25;5046118;27;99366;-74
2021/12/20 09:59:29;;;;;;;1999.90;999.90;;;;;;;-2.61;56.84;102222.50;5049391;27;97753;-73
2021/12/20 10:01:58;;;;;;;1999.90;999.90;;;;;;;-2.53;57.56;102236.28;5050482;27;96722;-73
2021/12/20 10:04:26;;;;;;;1999.90;999.90;;;;;;;-2.48;57.36;102233.34;5035132;27;97121;-73
2021/12/20 10:06:56;;;;;;;1999.90;999.90;;;;;;;-2.46;57.04;102239.63;5031536;27;97920;-72
2021/12/20 10:09:28;;;;;;;1999.90;999.90;;;;;;;-2.49;56.75;102238.41;5016774;27;100802;-72
2021/12/20 10:12:22;;;;;;;1999.90;999.90;;;;;;;-2.60;55.36;102242.56;5036235;27;97720;-72
2021/12/20 10:14:55;;;;;;;1999.90;999.90;;;;;;;-2.53;57.17;102245.03;5013742;27;98290;-72
2021/12/20 10:17:26;;;;;;;1999.90;999.90;;;;;;;-2.21;56.39;102241.19;5028020;27;98558;-72
2021/12/20 10:19:53;;;;;;;1999.90;999.90;;;;;;;-2.33;56.59;102231.28;5034182;27;99090;-72
2021/12/20 10:22:23;;;;;;;1999.90;999.90;;;;;;;-2.34;56.38;102234.66;5035800;27;98023;-72
2021/12/20 10:24:51;;;;;;;1999.90;999.90;;;;;;;-2.33;57.00;102240.03;5031467;27;96935;-72
2021/12/20 10:27:35;;;;;;;1999.90;999.90;;;;;;;-2.33;56.95;102233.88;5037641;27;97667;-71
2021/12/20 10:30:21;;;;;;;1999.90;999.90;;;;;;;-2.35;56.47;102249.38;5032993;27;100795;-72
2021/12/20 10:32:49;;;;;;;1999.90;999.90;;;;;;;-2.31;56.67;102241.06;5029837;27;96964;-71
2021/12/20 10:35:32;;;;;;;1999.90;999.90;;;;;;;-2.34;56.30;102248.59;5029545;27;97017;-72
2021/12/20 10:38:02;;;;;;;1999.90;999.90;;;;;;;-2.29;56.75;102243.84;5007239;27;98525;-71
2021/12/20 10:40:30;;;;;;;1999.90;999.90;;;;;;;-2.29;56.58;102249.94;5025942;27;100416;-72
2021/12/20 10:43:00;;;;;;;1999.90;999.90;;;;;;;-2.27;57.36;102237.09;5017180;27;98524;-73
2021/12/20 10:45:28;;;;;;;1999.90;999.90;;;;;;;-2.27;57.31;102240.59;5027915;27;98405;-72
2021/12/20 10:47:56;;;;;;;1999.90;999.90;;;;;;;-2.24;57.16;102233.09;5026447;27;97639;-73
2021/12/20 10:50:27;;;;;;;1999.90;999.90;;;;;;;-2.20;56.91;102236.91;5028159;27;99367;-72
2021/12/20 10:53:11;;;;;;;1999.90;999.90;;;;;;;-2.22;56.75;102241.97;5027520;27;97514;-72
2021/12/20 10:55:41;;;;;;;1999.90;999.90;;;;;;;-2.19;56.81;102239.66;5028850;27;96819;-72
2021/12/20 10:58:34;;;;;;;1999.90;999.90;;;;;;;-2.21;56.16;102241.19;5020362;27;100268;-73
2021/12/20 11:01:17;;;;;;;1999.90;999.90;;;;;;;-2.26;57.15;102234.63;5024825;27;100802;-72
2021/12/20 11:03:56;;;;;;;1999.90;999.90;;;;;;;-2.26;56.68;102237.22;5029398;27;97548;-72
2021/12/20 11:09:15;;;;;;;1999.90;999.90;;;;;;;-2.21;56.54;102246.41;5026002;27;98852;-73
2021/12/20 11:11:48;;;;;;;1999.90;999.90;;;;;;;-2.17;56.54;102242.44;5031164;27;97740;-71